createdAt,value
2018-05-07T18:18:28.114Z,3.60
2018-05-07T18:20:56.439Z,3.60
2018-05-07T18:23:23.844Z,3.67
2018-05-07T18:25:51.249Z,3.47
2018-05-07T18:28:18.582Z,3.87
2018-05-07T18:30:46.079Z,3.70
2018-05-07T18:33:13.552Z,3.90
2018-05-07T18:35:40.996Z,3.70
2018-05-07T18:38:08.489Z,4.50
2018-05-07T18:40:35.835Z,4.33
2018-05-07T18:43:03.172Z,4.20
2018-05-07T18:45:30.647Z,4.00
2018-05-07T18:47:58.035Z,4.87
2018-05-07T18:50:25.424Z,3.83
2018-05-07T18:52:52.807Z,4.27
2018-05-07T18:55:20.202Z,4.60
2018-05-07T18:57:47.548Z,5.37
2018-05-07T19:00:14.935Z,5.30
2018-05-07T19:02:42.290Z,6.30
2018-05-07T19:05:09.740Z,5.53
2018-05-07T19:07:37.146Z,6.50
2018-05-07T19:10:04.528Z,7.27
2018-05-07T19:12:31.923Z,5.30
2018-05-07T19:14:59.262Z,5.20
2018-05-07T19:17:26.662Z,5.83
2018-05-07T19:19:54.181Z,6.00
2018-05-07T19:22:21.523Z,6.00
2018-05-07T19:24:49.003Z,6.00
2018-05-07T19:27:16.533Z,5.40
2018-05-07T19:29:43.925Z,6.57
2018-05-07T19:32:11.349Z,5.80
2018-05-07T19:34:38.723Z,6.03
2018-05-07T19:37:06.260Z,6.10
2018-05-07T19:39:33.672Z,5.57
2018-05-07T19:42:01.232Z,5.70
2018-05-07T19:44:28.665Z,5.83
2018-05-07T19:46:56.065Z,5.37
2018-05-07T19:49:23.414Z,5.90
2018-05-07T19:51:50.799Z,6.30
2018-05-07T19:54:18.233Z,6.33
2018-05-07T19:56:45.746Z,6.23
2018-05-07T19:59:13.347Z,6.10
2018-05-07T20:01:40.762Z,6.13
2018-05-07T20:04:08.287Z,6.10
2018-05-07T20:06:35.871Z,6.47
2018-05-07T20:09:03.262Z,7.40
2018-05-07T20:11:30.668Z,7.20
2018-05-07T20:13:58.088Z,7.27
2018-05-07T20:16:25.486Z,7.93
2018-05-07T20:18:53.296Z,7.60
2018-05-07T20:21:20.766Z,8.53
2018-05-07T20:23:48.168Z,9.60
2018-05-07T20:26:15.604Z,8.40
2018-05-07T20:28:43.043Z,10.00
2018-05-07T20:31:10.431Z,9.63
2018-05-07T20:33:37.820Z,12.57
2018-05-07T20:36:05.246Z,11.37
2018-05-07T20:38:32.793Z,13.10
2018-05-07T20:41:00.152Z,11.27
2018-05-07T20:43:27.527Z,9.80
2018-05-07T20:45:54.904Z,9.67
2018-05-07T20:48:22.289Z,9.77
2018-05-07T20:50:49.728Z,9.87
2018-05-07T20:53:17.340Z,10.03
2018-05-07T20:55:44.830Z,9.50
2018-05-07T20:58:22.284Z,8.63
2018-05-07T21:00:49.692Z,8.43
2018-05-07T21:03:18.061Z,7.63
2018-05-07T21:05:45.486Z,7.27
2018-05-07T21:08:12.864Z,7.60
2018-05-07T21:10:40.215Z,7.60
2018-05-07T21:13:07.640Z,7.10
2018-05-07T21:15:35.107Z,7.67
2018-05-07T21:18:02.485Z,6.50
2018-05-07T21:20:29.912Z,7.37
2018-05-07T21:22:57.356Z,7.30
2018-05-07T21:25:24.750Z,6.50
2018-05-07T21:27:52.148Z,7.17
2018-05-07T21:30:19.527Z,6.70
2018-05-07T21:32:46.924Z,6.63
2018-05-07T21:35:14.326Z,7.10
2018-05-07T21:37:41.752Z,6.60
2018-05-07T21:40:09.167Z,7.00
2018-05-07T21:42:36.563Z,6.83
2018-05-07T21:45:03.955Z,6.67
2018-05-07T21:47:31.339Z,6.70
2018-05-07T21:49:58.765Z,6.20
2018-05-07T21:52:26.164Z,6.90
2018-05-07T21:54:53.542Z,7.13
2018-05-07T21:57:20.943Z,7.20
2018-05-07T21:59:48.374Z,7.33
2018-05-07T22:02:15.753Z,7.30
2018-05-07T22:04:43.186Z,7.53
2018-05-07T22:07:10.561Z,6.90
2018-05-07T22:09:37.952Z,7.47
2018-05-07T22:12:05.381Z,7.63
2018-05-07T22:14:32.741Z,7.33
2018-05-07T22:17:00.159Z,7.30
2018-05-07T22:19:27.608Z,7.80
2018-05-07T22:21:54.967Z,7.07
2018-05-07T22:24:22.355Z,7.00
2018-05-07T22:26:49.764Z,7.07
2018-05-07T22:29:17.115Z,7.07
2018-05-07T22:31:44.556Z,7.47
2018-05-07T22:34:11.921Z,7.53
2018-05-07T22:36:39.308Z,7.60
2018-05-07T22:39:06.731Z,7.30
2018-05-07T22:41:34.123Z,7.20
2018-05-07T22:44:01.548Z,7.10
2018-05-07T22:46:28.899Z,6.87
2018-05-07T22:48:56.319Z,7.50
2018-05-07T22:51:23.712Z,7.93
2018-05-07T22:53:51.154Z,7.20
2018-05-07T22:56:18.526Z,7.33
2018-05-07T22:58:45.974Z,7.70
2018-05-07T23:01:13.321Z,7.60
2018-05-07T23:03:40.751Z,6.90
2018-05-07T23:06:08.192Z,7.10
2018-05-07T23:08:35.573Z,7.10
2018-05-07T23:11:02.993Z,7.90
2018-05-07T23:13:30.437Z,7.23
2018-05-07T23:15:57.823Z,7.67
2018-05-07T23:18:25.248Z,7.37
2018-05-07T23:20:52.660Z,7.30
2018-05-07T23:23:20.188Z,7.23
2018-05-07T23:25:47.567Z,7.27
2018-05-07T23:28:15.022Z,7.60
2018-05-07T23:30:42.435Z,7.80
2018-05-07T23:33:09.902Z,8.00
2018-05-07T23:35:37.346Z,7.60
2018-05-07T23:38:04.841Z,7.00
2018-05-07T23:40:32.244Z,7.27
2018-05-07T23:42:59.590Z,7.90
2018-05-07T23:45:26.979Z,7.60
2018-05-07T23:47:54.356Z,7.70
2018-05-07T23:50:21.738Z,8.53
2018-05-07T23:52:49.104Z,7.50
2018-05-07T23:55:16.502Z,8.00
2018-05-07T23:57:44.072Z,8.40
